sensor_id;sensor_type;location;lat;lon;timestamp;temperature;humidity
74940;HTU21D;63505;45.226;37.908;2022-11-20T00:01:08;10.22;87.11
74940;HTU21D;63505;45.226;37.908;2022-11-20T00:03:34;10.24;87.09
74940;HTU21D;63505;45.226;37.908;2022-11-20T00:06:02;10.27;87.08
74940;HTU21D;63505;45.226;37.908;2022-11-20T00:08:28;10.27;87.03
74940;HTU21D;63505;45.226;37.908;2022-11-20T00:10:54;10.26;87.00
74940;HTU21D;63505;45.226;37.908;2022-11-20T00:13:20;10.23;87.02
74940;HTU21D;63505;45.226;37.908;2022-11-20T00:15:46;10.15;87.02
74940;HTU21D;63505;45.226;37.908;2022-11-20T00:18:12;10.08;87.17
74940;HTU21D;63505;45.226;37.908;2022-11-20T00:20:38;10.08;87.25
74940;HTU21D;63505;45.226;37.908;2022-11-20T00:23:03;10.08;87.29
74940;HTU21D;63505;45.226;37.908;2022-11-20T00:25:29;10.08;87.25
74940;HTU21D;63505;45.226;37.908;2022-11-20T00:27:55;10.07;87.31
74940;HTU21D;63505;45.226;37.908;2022-11-20T00:30:21;10.10;87.33
74940;HTU21D;63505;45.226;37.908;2022-11-20T00:32:47;10.12;87.31
74940;HTU21D;63505;45.226;37.908;2022-11-20T00:35:13;10.13;87.27
74940;HTU21D;63505;45.226;37.908;2022-11-20T00:37:39;10.14;87.28
74940;HTU21D;63505;45.226;37.908;2022-11-20T00:40:05;10.15;87.27
74940;HTU21D;63505;45.226;37.908;2022-11-20T00:42:31;10.16;87.30
74940;HTU21D;63505;45.226;37.908;2022-11-20T00:44:58;10.16;87.29
74940;HTU21D;63505;45.226;37.908;2022-11-20T00:47:24;10.19;87.29
74940;HTU21D;63505;45.226;37.908;2022-11-20T00:49:50;10.19;87.30
74940;HTU21D;63505;45.226;37.908;2022-11-20T00:52:16;10.18;87.28
74940;HTU21D;63505;45.226;37.908;2022-11-20T00:54:42;10.16;87.28
74940;HTU21D;63505;45.226;37.908;2022-11-20T00:57:07;10.15;87.31
74940;HTU21D;63505;45.226;37.908;2022-11-20T00:59:33;10.14;87.35
74940;HTU21D;63505;45.226;37.908;2022-11-20T01:01:59;10.13;87.35
74940;HTU21D;63505;45.226;37.908;2022-11-20T01:04:25;10.12;87.38
74940;HTU21D;63505;45.226;37.908;2022-11-20T01:06:51;10.10;87.40
74940;HTU21D;63505;45.226;37.908;2022-11-20T01:09:17;10.09;87.44
74940;HTU21D;63505;45.226;37.908;2022-11-20T01:11:44;10.10;87.44
74940;HTU21D;63505;45.226;37.908;2022-11-20T01:14:15;10.11;87.48
74940;HTU21D;63505;45.226;37.908;2022-11-20T01:16:47;10.12;87.48
74940;HTU21D;63505;45.226;37.908;2022-11-20T01:19:20;10.13;87.51
74940;HTU21D;63505;45.226;37.908;2022-11-20T01:21:49;10.16;87.48
74940;HTU21D;63505;45.226;37.908;2022-11-20T01:24:17;10.18;87.47
74940;HTU21D;63505;45.226;37.908;2022-11-20T01:26:45;10.22;87.44
74940;HTU21D;63505;45.226;37.908;2022-11-20T01:29:14;10.24;87.39
74940;HTU21D;63505;45.226;37.908;2022-11-20T01:31:41;10.23;87.41
74940;HTU21D;63505;45.226;37.908;2022-11-20T01:34:10;10.26;87.41
74940;HTU21D;63505;45.226;37.908;2022-11-20T01:36:37;10.26;87.41
74940;HTU21D;63505;45.226;37.908;2022-11-20T01:39:07;10.25;87.41
74940;HTU21D;63505;45.226;37.908;2022-11-20T01:41:33;10.22;87.44
74940;HTU21D;63505;45.226;37.908;2022-11-20T01:44:21;10.22;87.55
74940;HTU21D;63505;45.226;37.908;2022-11-20T01:49:34;10.15;87.64
74940;HTU21D;63505;45.226;37.908;2022-11-20T01:52:07;10.15;87.74
74940;HTU21D;63505;45.226;37.908;2022-11-20T01:54:42;10.15;87.82
74940;HTU21D;63505;45.226;37.908;2022-11-20T01:57:10;10.18;87.87
74940;HTU21D;63505;45.226;37.908;2022-11-20T01:59:41;10.21;87.93
74940;HTU21D;63505;45.226;37.908;2022-11-20T02:02:09;10.24;87.90
74940;HTU21D;63505;45.226;37.908;2022-11-20T02:04:35;10.29;87.89
74940;HTU21D;63505;45.226;37.908;2022-11-20T02:07:02;10.30;87.86
74940;HTU21D;63505;45.226;37.908;2022-11-20T02:09:30;10.33;87.92
74940;HTU21D;63505;45.226;37.908;2022-11-20T02:11:57;10.33;87.92
74940;HTU21D;63505;45.226;37.908;2022-11-20T02:14:24;10.38;87.86
74940;HTU21D;63505;45.226;37.908;2022-11-20T02:16:51;10.39;87.82
74940;HTU21D;63505;45.226;37.908;2022-11-20T02:19:23;10.41;87.81
74940;HTU21D;63505;45.226;37.908;2022-11-20T02:24:39;10.41;87.77
74940;HTU21D;63505;45.226;37.908;2022-11-20T02:27:11;10.38;87.80
74940;HTU21D;63505;45.226;37.908;2022-11-20T02:29:39;10.35;87.84
74940;HTU21D;63505;45.226;37.908;2022-11-20T02:32:06;10.31;87.92
74940;HTU21D;63505;45.226;37.908;2022-11-20T02:34:32;10.29;87.96
74940;HTU21D;63505;45.226;37.908;2022-11-20T02:36:59;10.25;88.03
74940;HTU21D;63505;45.226;37.908;2022-11-20T02:39:26;10.25;88.11
74940;HTU21D;63505;45.226;37.908;2022-11-20T02:41:53;10.25;88.12
74940;HTU21D;63505;45.226;37.908;2022-11-20T02:44:20;10.25;88.15
74940;HTU21D;63505;45.226;37.908;2022-11-20T02:46:46;10.27;88.12
74940;HTU21D;63505;45.226;37.908;2022-11-20T02:49:12;10.25;88.11
74940;HTU21D;63505;45.226;37.908;2022-11-20T02:51:38;10.23;88.16
74940;HTU21D;63505;45.226;37.908;2022-11-20T02:54:04;10.20;88.18
74940;HTU21D;63505;45.226;37.908;2022-11-20T02:56:30;10.19;88.24
74940;HTU21D;63505;45.226;37.908;2022-11-20T02:58:56;10.13;88.23
74940;HTU21D;63505;45.226;37.908;2022-11-20T03:01:22;10.09;88.32
74940;HTU21D;63505;45.226;37.908;2022-11-20T03:03:48;10.08;88.43
74940;HTU21D;63505;45.226;37.908;2022-11-20T03:06:16;10.11;88.45
74940;HTU21D;63505;45.226;37.908;2022-11-20T03:08:42;10.11;88.41
74940;HTU21D;63505;45.226;37.908;2022-11-20T03:11:09;10.10;88.35
74940;HTU21D;63505;45.226;37.908;2022-11-20T03:13:34;10.06;88.37
74940;HTU21D;63505;45.226;37.908;2022-11-20T03:16:18;10.01;88.44
74940;HTU21D;63505;45.226;37.908;2022-11-20T03:18:45;10.01;88.45
74940;HTU21D;63505;45.226;37.908;2022-11-20T03:21:12;9.99;88.44
74940;HTU21D;63505;45.226;37.908;2022-11-20T03:23:39;9.95;88.51
74940;HTU21D;63505;45.226;37.908;2022-11-20T03:26:14;9.95;88.57
74940;HTU21D;63505;45.226;37.908;2022-11-20T03:28:40;9.95;88.51
74940;HTU21D;63505;45.226;37.908;2022-11-20T03:31:11;9.93;88.50
74940;HTU21D;63505;45.226;37.908;2022-11-20T03:33:38;9.95;88.48
74940;HTU21D;63505;45.226;37.908;2022-11-20T03:36:07;9.97;88.44
74940;HTU21D;63505;45.226;37.908;2022-11-20T03:38:33;10.00;88.48
74940;HTU21D;63505;45.226;37.908;2022-11-20T03:41:11;10.07;88.43
74940;HTU21D;63505;45.226;37.908;2022-11-20T03:43:38;10.10;88.37
74940;HTU21D;63505;45.226;37.908;2022-11-20T03:46:05;10.14;88.33
74940;HTU21D;63505;45.226;37.908;2022-11-20T03:48:31;10.19;88.32
74940;HTU21D;63505;45.226;37.908;2022-11-20T03:51:18;10.24;88.28
74940;HTU21D;63505;45.226;37.908;2022-11-20T03:53:45;10.22;88.22
74940;HTU21D;63505;45.226;37.908;2022-11-20T03:56:12;10.19;88.18
74940;HTU21D;63505;45.226;37.908;2022-11-20T03:58:40;10.16;88.24
74940;HTU21D;63505;45.226;37.908;2022-11-20T04:01:08;10.13;88.34
74940;HTU21D;63505;45.226;37.908;2022-11-20T04:03:36;10.09;88.41
74940;HTU21D;63505;45.226;37.908;2022-11-20T04:06:10;10.09;88.51
74940;HTU21D;63505;45.226;37.908;2022-11-20T04:08:37;10.08;88.58
74940;HTU21D;63505;45.226;37.908;2022-11-20T04:13:36;10.05;88.80
74940;HTU21D;63505;45.226;37.908;2022-11-20T04:16:03;10.06;88.85
74940;HTU21D;63505;45.226;37.908;2022-11-20T04:18:29;10.05;88.91
74940;HTU21D;63505;45.226;37.908;2022-11-20T04:20:56;10.04;88.92
74940;HTU21D;63505;45.226;37.908;2022-11-20T04:23:23;10.01;89.01
74940;HTU21D;63505;45.226;37.908;2022-11-20T04:25:49;10.07;89.03
74940;HTU21D;63505;45.226;37.908;2022-11-20T04:28:15;10.08;88.99
74940;HTU21D;63505;45.226;37.908;2022-11-20T04:30:41;10.11;88.96
74940;HTU21D;63505;45.226;37.908;2022-11-20T04:33:07;10.12;88.87
74940;HTU21D;63505;45.226;37.908;2022-11-20T04:35:36;10.09;88.83
74940;HTU21D;63505;45.226;37.908;2022-11-20T04:38:02;10.08;88.88
74940;HTU21D;63505;45.226;37.908;2022-11-20T04:40:29;10.08;88.91
74940;HTU21D;63505;45.226;37.908;2022-11-20T04:42:55;10.05;88.92
74940;HTU21D;63505;45.226;37.908;2022-11-20T04:45:21;10.05;88.93
74940;HTU21D;63505;45.226;37.908;2022-11-20T04:47:48;10.03;88.97
74940;HTU21D;63505;45.226;37.908;2022-11-20T04:50:14;9.97;89.04
74940;HTU21D;63505;45.226;37.908;2022-11-20T04:52:40;9.95;89.12
74940;HTU21D;63505;45.226;37.908;2022-11-20T04:55:06;9.96;89.24
74940;HTU21D;63505;45.226;37.908;2022-11-20T04:57:32;9.95;89.33
74940;HTU21D;63505;45.226;37.908;2022-11-20T04:59:58;9.95;89.43
74940;HTU21D;63505;45.226;37.908;2022-11-20T05:02:24;9.98;89.50
74940;HTU21D;63505;45.226;37.908;2022-11-20T05:04:50;10.04;89.54
74940;HTU21D;63505;45.226;37.908;2022-11-20T05:07:16;10.12;89.52
74940;HTU21D;63505;45.226;37.908;2022-11-20T05:09:42;10.24;89.50
74940;HTU21D;63505;45.226;37.908;2022-11-20T05:12:08;10.36;89.40
74940;HTU21D;63505;45.226;37.908;2022-11-20T05:14:34;10.44;89.28
74940;HTU21D;63505;45.226;37.908;2022-11-20T05:17:00;10.54;89.18
74940;HTU21D;63505;45.226;37.908;2022-11-20T05:19:26;10.60;89.09
74940;HTU21D;63505;45.226;37.908;2022-11-20T05:21:52;10.64;89.05
74940;HTU21D;63505;45.226;37.908;2022-11-20T05:24:18;10.66;89.03
74940;HTU21D;63505;45.226;37.908;2022-11-20T05:26:44;10.65;89.01
74940;HTU21D;63505;45.226;37.908;2022-11-20T05:29:11;10.60;89.10
74940;HTU21D;63505;45.226;37.908;2022-11-20T05:31:39;10.54;89.25
74940;HTU21D;63505;45.226;37.908;2022-11-20T05:34:05;10.50;89.38
74940;HTU21D;63505;45.226;37.908;2022-11-20T05:36:32;10.46;89.57
74940;HTU21D;63505;45.226;37.908;2022-11-20T05:38:58;10.44;89.69
74940;HTU21D;63505;45.226;37.908;2022-11-20T05:41:24;10.43;89.75
74940;HTU21D;63505;45.226;37.908;2022-11-20T05:43:50;10.45;89.79
74940;HTU21D;63505;45.226;37.908;2022-11-20T05:46:19;10.45;89.80
74940;HTU21D;63505;45.226;37.908;2022-11-20T05:48:46;10.49;89.80
74940;HTU21D;63505;45.226;37.908;2022-11-20T05:51:14;10.50;89.78
74940;HTU21D;63505;45.226;37.908;2022-11-20T05:53:40;10.52;89.81
74940;HTU21D;63505;45.226;37.908;2022-11-20T05:56:10;10.59;89.75
74940;HTU21D;63505;45.226;37.908;2022-11-20T05:58:36;10.65;89.69
74940;HTU21D;63505;45.226;37.908;2022-11-20T06:01:09;10.71;89.61
74940;HTU21D;63505;45.226;37.908;2022-11-20T06:03:36;10.78;89.50
74940;HTU21D;63505;45.226;37.908;2022-11-20T06:06:03;10.78;89.38
74940;HTU21D;63505;45.226;37.908;2022-11-20T06:08:30;10.75;89.37
74940;HTU21D;63505;45.226;37.908;2022-11-20T06:10:56;10.75;89.40
74940;HTU21D;63505;45.226;37.908;2022-11-20T06:13:22;10.79;89.48
74940;HTU21D;63505;45.226;37.908;2022-11-20T06:15:52;11.03;89.49
74940;HTU21D;63505;45.226;37.908;2022-11-20T06:18:19;11.13;89.23
74940;HTU21D;63505;45.226;37.908;2022-11-20T06:20:45;11.09;89.15
74940;HTU21D;63505;45.226;37.908;2022-11-20T06:23:12;11.03;89.17
74940;HTU21D;63505;45.226;37.908;2022-11-20T06:25:42;10.98;89.25
74940;HTU21D;63505;45.226;37.908;2022-11-20T06:28:08;10.95;89.30
74940;HTU21D;63505;45.226;37.908;2022-11-20T06:30:35;10.92;89.39
74940;HTU21D;63505;45.226;37.908;2022-11-20T06:33:01;10.92;89.47
74940;HTU21D;63505;45.226;37.908;2022-11-20T06:35:27;10.88;89.55
74940;HTU21D;63505;45.226;37.908;2022-11-20T06:37:53;10.85;89.60
74940;HTU21D;63505;45.226;37.908;2022-11-20T06:40:19;10.83;89.72
74940;HTU21D;63505;45.226;37.908;2022-11-20T06:42:45;10.79;89.82
74940;HTU21D;63505;45.226;37.908;2022-11-20T06:45:11;10.75;89.87
74940;HTU21D;63505;45.226;37.908;2022-11-20T06:47:37;10.72;90.01
74940;HTU21D;63505;45.226;37.908;2022-11-20T06:50:03;10.72;90.14
74940;HTU21D;63505;45.226;37.908;2022-11-20T06:52:29;10.72;90.24
74940;HTU21D;63505;45.226;37.908;2022-11-20T06:54:54;10.75;90.30
74940;HTU21D;63505;45.226;37.908;2022-11-20T06:57:20;10.79;90.33
74940;HTU21D;63505;45.226;37.908;2022-11-20T06:59:46;10.83;90.38
74940;HTU21D;63505;45.226;37.908;2022-11-20T07:02:12;10.86;90.45
74940;HTU21D;63505;45.226;37.908;2022-11-20T07:04:38;10.87;90.52
74940;HTU21D;63505;45.226;37.908;2022-11-20T07:07:05;10.88;90.59
74940;HTU21D;63505;45.226;37.908;2022-11-20T07:09:32;10.89;90.66
74940;HTU21D;63505;45.226;37.908;2022-11-20T07:11:59;10.89;90.77
74940;HTU21D;63505;45.226;37.908;2022-11-20T07:14:25;10.90;90.86
74940;HTU21D;63505;45.226;37.908;2022-11-20T07:16:50;10.92;90.92
74940;HTU21D;63505;45.226;37.908;2022-11-20T07:19:16;10.92;91.01
74940;HTU21D;63505;45.226;37.908;2022-11-20T07:21:42;10.93;91.05
74940;HTU21D;63505;45.226;37.908;2022-11-20T07:24:08;10.93;91.08
74940;HTU21D;63505;45.226;37.908;2022-11-20T07:26:34;10.98;91.17
74940;HTU21D;63505;45.226;37.908;2022-11-20T07:29:00;11.04;91.18
74940;HTU21D;63505;45.226;37.908;2022-11-20T07:31:26;11.09;91.13
74940;HTU21D;63505;45.226;37.908;2022-11-20T07:33:52;11.15;91.08
74940;HTU21D;63505;45.226;37.908;2022-11-20T07:36:18;11.17;91.05
74940;HTU21D;63505;45.226;37.908;2022-11-20T07:38:44;11.16;91.05
74940;HTU21D;63505;45.226;37.908;2022-11-20T07:41:10;11.15;91.08
74940;HTU21D;63505;45.226;37.908;2022-11-20T07:43:36;11.16;91.09
74940;HTU21D;63505;45.226;37.908;2022-11-20T07:46:02;11.20;91.10
74940;HTU21D;63505;45.226;37.908;2022-11-20T07:48:29;11.27;91.07
74940;HTU21D;63505;45.226;37.908;2022-11-20T07:50:58;11.37;90.99
74940;HTU21D;63505;45.226;37.908;2022-11-20T07:53:24;11.40;90.88
74940;HTU21D;63505;45.226;37.908;2022-11-20T07:55:50;11.43;90.79
74940;HTU21D;63505;45.226;37.908;2022-11-20T07:58:18;11.43;90.72
74940;HTU21D;63505;45.226;37.908;2022-11-20T08:00:46;11.41;90.73
74940;HTU21D;63505;45.226;37.908;2022-11-20T08:03:12;11.39;90.75
74940;HTU21D;63505;45.226;37.908;2022-11-20T08:05:38;11.38;90.81
74940;HTU21D;63505;45.226;37.908;2022-11-20T08:08:04;11.39;90.84
74940;HTU21D;63505;45.226;37.908;2022-11-20T08:10:32;11.39;90.93
74940;HTU21D;63505;45.226;37.908;2022-11-20T08:12:58;11.45;90.97
74940;HTU21D;63505;45.226;37.908;2022-11-20T08:15:48;11.47;91.01
74940;HTU21D;63505;45.226;37.908;2022-11-20T08:18:15;11.49;91.05
74940;HTU21D;63505;45.226;37.908;2022-11-20T08:20:43;11.54;91.08
74940;HTU21D;63505;45.226;37.908;2022-11-20T08:23:09;11.58;91.08
74940;HTU21D;63505;45.226;37.908;2022-11-20T08:25:36;11.61;91.08
74940;HTU21D;63505;45.226;37.908;2022-11-20T08:28:07;11.67;91.10
74940;HTU21D;63505;45.226;37.908;2022-11-20T08:30:34;11.70;91.11
74940;HTU21D;63505;45.226;37.908;2022-11-20T08:33:05;11.77;91.08
74940;HTU21D;63505;45.226;37.908;2022-11-20T08:35:35;11.83;91.05
74940;HTU21D;63505;45.226;37.908;2022-11-20T08:38:03;11.90;91.00
74940;HTU21D;63505;45.226;37.908;2022-11-20T08:40:30;11.99;90.97
74940;HTU21D;63505;45.226;37.908;2022-11-20T08:42:56;12.12;90.86
74940;HTU21D;63505;45.226;37.908;2022-11-20T08:45:22;12.23;90.74
74940;HTU21D;63505;45.226;37.908;2022-11-20T08:47:48;12.35;90.60
74940;HTU21D;63505;45.226;37.908;2022-11-20T08:50:15;12.49;90.47
74940;HTU21D;63505;45.226;37.908;2022-11-20T08:52:42;12.63;90.31
74940;HTU21D;63505;45.226;37.908;2022-11-20T08:55:09;12.72;90.17
74940;HTU21D;63505;45.226;37.908;2022-11-20T08:57:36;12.78;90.05
74940;HTU21D;63505;45.226;37.908;2022-11-20T09:00:04;12.85;89.95
74940;HTU21D;63505;45.226;37.908;2022-11-20T09:02:31;12.91;89.84
74940;HTU21D;63505;45.226;37.908;2022-11-20T09:04:58;12.91;89.59
74940;HTU21D;63505;45.226;37.908;2022-11-20T09:07:23;12.93;89.44
74940;HTU21D;63505;45.226;37.908;2022-11-20T09:09:50;12.97;89.34
74940;HTU21D;63505;45.226;37.908;2022-11-20T09:12:15;13.03;89.20
74940;HTU21D;63505;45.226;37.908;2022-11-20T09:14:41;13.10;89.08
74940;HTU21D;63505;45.226;37.908;2022-11-20T09:17:09;13.18;88.99
74940;HTU21D;63505;45.226;37.908;2022-11-20T09:19:36;13.34;88.87
74940;HTU21D;63505;45.226;37.908;2022-11-20T09:22:02;13.52;88.74
74940;HTU21D;63505;45.226;37.908;2022-11-20T09:24:28;13.78;88.52
74940;HTU21D;63505;45.226;37.908;2022-11-20T09:26:54;14.05;88.11
74940;HTU21D;63505;45.226;37.908;2022-11-20T09:29:19;14.28;87.60
74940;HTU21D;63505;45.226;37.908;2022-11-20T09:31:45;14.40;87.17
74940;HTU21D;63505;45.226;37.908;2022-11-20T09:34:11;14.47;86.78
74940;HTU21D;63505;45.226;37.908;2022-11-20T09:36:37;14.50;86.74
74940;HTU21D;63505;45.226;37.908;2022-11-20T09:39:03;14.56;86.66
74940;HTU21D;63505;45.226;37.908;2022-11-20T09:46:54;14.92;85.69
74940;HTU21D;63505;45.226;37.908;2022-11-20T09:54:20;15.13;84.42
74940;HTU21D;63505;45.226;37.908;2022-11-20T09:56:56;15.17;84.16
74940;HTU21D;63505;45.226;37.908;2022-11-20T09:59:30;15.25;83.56
74940;HTU21D;63505;45.226;37.908;2022-11-20T10:01:59;15.37;83.34
74940;HTU21D;63505;45.226;37.908;2022-11-20T10:04:25;15.57;83.11
74940;HTU21D;63505;45.226;37.908;2022-11-20T10:07:12;15.73;82.65
74940;HTU21D;63505;45.226;37.908;2022-11-20T10:09:46;15.84;82.04
74940;HTU21D;63505;45.226;37.908;2022-11-20T10:12:36;15.93;81.48
74940;HTU21D;63505;45.226;37.908;2022-11-20T10:18:07;16.19;80.81
74940;HTU21D;63505;45.226;37.908;2022-11-20T10:23:17;16.17;79.91
74940;HTU21D;63505;45.226;37.908;2022-11-20T10:26:02;16.11;79.99
74940;HTU21D;63505;45.226;37.908;2022-11-20T10:31:04;16.34;80.17
74940;HTU21D;63505;45.226;37.908;2022-11-20T10:33:38;16.45;80.07
74940;HTU21D;63505;45.226;37.908;2022-11-20T10:36:21;16.48;79.52
74940;HTU21D;63505;45.226;37.908;2022-11-20T10:38:56;16.55;79.68
74940;HTU21D;63505;45.226;37.908;2022-11-20T10:41:38;16.66;79.69
74940;HTU21D;63505;45.226;37.908;2022-11-20T10:44:15;16.80;79.54
74940;HTU21D;63505;45.226;37.908;2022-11-20T10:47:01;16.81;78.97
74940;HTU21D;63505;45.226;37.908;2022-11-20T10:49:27;16.82;78.73
74940;HTU21D;63505;45.226;37.908;2022-11-20T10:53:02;16.88;78.52
74940;HTU21D;63505;45.226;37.908;2022-11-20T10:57:55;17.08;78.06
74940;HTU21D;63505;45.226;37.908;2022-11-20T11:00:24;17.28;78.20
74940;HTU21D;63505;45.226;37.908;2022-11-20T11:02:52;17.41;77.72
74940;HTU21D;63505;45.226;37.908;2022-11-20T11:07:55;17.59;77.02
74940;HTU21D;63505;45.226;37.908;2022-11-20T11:12:51;17.67;76.56
74940;HTU21D;63505;45.226;37.908;2022-11-20T11:15:35;17.67;76.37
74940;HTU21D;63505;45.226;37.908;2022-11-20T11:18:02;17.64;76.36
74940;HTU21D;63505;45.226;37.908;2022-11-20T11:20:29;17.67;76.65
74940;HTU21D;63505;45.226;37.908;2022-11-20T11:22:57;17.75;76.70
74940;HTU21D;63505;45.226;37.908;2022-11-20T11:25:33;17.78;76.29
74940;HTU21D;63505;45.226;37.908;2022-11-20T11:28:03;17.82;76.31
74940;HTU21D;63505;45.226;37.908;2022-11-20T11:30:41;17.78;76.42
74940;HTU21D;63505;45.226;37.908;2022-11-20T11:33:21;17.80;76.57
74940;HTU21D;63505;45.226;37.908;2022-11-20T11:35:59;17.79;76.67
74940;HTU21D;63505;45.226;37.908;2022-11-20T11:38:35;17.77;76.76
74940;HTU21D;63505;45.226;37.908;2022-11-20T11:41:05;17.75;76.91
74940;HTU21D;63505;45.226;37.908;2022-11-20T11:43:34;17.76;77.08
74940;HTU21D;63505;45.226;37.908;2022-11-20T11:46:32;17.77;77.01
74940;HTU21D;63505;45.226;37.908;2022-11-20T11:49:08;17.74;76.91
74940;HTU21D;63505;45.226;37.908;2022-11-20T11:54:29;17.65;76.99
74940;HTU21D;63505;45.226;37.908;2022-11-20T11:57:00;17.61;77.01
74940;HTU21D;63505;45.226;37.908;2022-11-20T11:59:41;17.60;77.05
74940;HTU21D;63505;45.226;37.908;2022-11-20T12:02:27;17.55;77.07
74940;HTU21D;63505;45.226;37.908;2022-11-20T12:05:00;17.53;77.24
74940;HTU21D;63505;45.226;37.908;2022-11-20T12:07:43;17.52;77.40
74940;HTU21D;63505;45.226;37.908;2022-11-20T12:11:02;17.53;77.56
74940;HTU21D;63505;45.226;37.908;2022-11-20T12:15:59;17.48;77.62
74940;HTU21D;63505;45.226;37.908;2022-11-20T12:18:27;17.48;77.69
74940;HTU21D;63505;45.226;37.908;2022-11-20T12:21:17;17.52;77.84
74940;HTU21D;63505;45.226;37.908;2022-11-20T12:27:02;17.83;77.95
74940;HTU21D;63505;45.226;37.908;2022-11-20T12:37:52;17.84;78.05
74940;HTU21D;63505;45.226;37.908;2022-11-20T12:43:28;17.99;78.14
74940;HTU21D;63505;45.226;37.908;2022-11-20T12:46:54;18.10;77.98
74940;HTU21D;63505;45.226;37.908;2022-11-20T12:52:24;18.32;76.94
74940;HTU21D;63505;45.226;37.908;2022-11-20T12:57:58;18.40;76.95
74940;HTU21D;63505;45.226;37.908;2022-11-20T13:00:25;18.43;76.92
74940;HTU21D;63505;45.226;37.908;2022-11-20T13:03:34;18.46;76.79
74940;HTU21D;63505;45.226;37.908;2022-11-20T13:06:17;18.46;76.67
74940;HTU21D;63505;45.226;37.908;2022-11-20T13:08:55;18.43;76.05
74940;HTU21D;63505;45.226;37.908;2022-11-20T13:11:41;18.38;75.55
74940;HTU21D;63505;45.226;37.908;2022-11-20T13:14:31;18.37;74.57
74940;HTU21D;63505;45.226;37.908;2022-11-20T13:17:14;18.35;73.69
74940;HTU21D;63505;45.226;37.908;2022-11-20T13:19:53;18.29;73.67
74940;HTU21D;63505;45.226;37.908;2022-11-20T13:22:41;18.20;73.76
74940;HTU21D;63505;45.226;37.908;2022-11-20T13:25:26;18.11;73.86
74940;HTU21D;63505;45.226;37.908;2022-11-20T13:27:53;18.03;73.91
74940;HTU21D;63505;45.226;37.908;2022-11-20T13:30:27;17.94;73.83
74940;HTU21D;63505;45.226;37.908;2022-11-20T13:35:41;17.81;73.08
74940;HTU21D;63505;45.226;37.908;2022-11-20T13:38:09;17.78;72.61
74940;HTU21D;63505;45.226;37.908;2022-11-20T13:40:50;17.77;72.03
74940;HTU21D;63505;45.226;37.908;2022-11-20T13:43:26;17.79;71.22
74940;HTU21D;63505;45.226;37.908;2022-11-20T13:45:59;17.79;70.91
74940;HTU21D;63505;45.226;37.908;2022-11-20T13:48:30;17.75;70.33
74940;HTU21D;63505;45.226;37.908;2022-11-20T14:01:49;17.52;70.30
74940;HTU21D;63505;45.226;37.908;2022-11-20T14:04:19;17.49;70.47
74940;HTU21D;63505;45.226;37.908;2022-11-20T14:06:48;17.43;70.66
74940;HTU21D;63505;45.226;37.908;2022-11-20T14:09:33;17.37;70.85
74940;HTU21D;63505;45.226;37.908;2022-11-20T14:12:00;17.29;71.04
74940;HTU21D;63505;45.226;37.908;2022-11-20T14:14:29;17.21;71.12
74940;HTU21D;63505;45.226;37.908;2022-11-20T14:17:15;17.15;70.93
74940;HTU21D;63505;45.226;37.908;2022-11-20T14:19:44;17.13;71.05
74940;HTU21D;63505;45.226;37.908;2022-11-20T14:22:18;17.08;71.13
74940;HTU21D;63505;45.226;37.908;2022-11-20T14:24:46;17.01;71.22
74940;HTU21D;63505;45.226;37.908;2022-11-20T14:27:20;16.93;71.52
74940;HTU21D;63505;45.226;37.908;2022-11-20T14:29:48;16.84;71.80
74940;HTU21D;63505;45.226;37.908;2022-11-20T14:32:17;16.78;72.01
74940;HTU21D;63505;45.226;37.908;2022-11-20T14:34:47;16.69;72.25
74940;HTU21D;63505;45.226;37.908;2022-11-20T14:37:23;16.61;72.52
74940;HTU21D;63505;45.226;37.908;2022-11-20T14:39:53;16.56;72.74
74940;HTU21D;63505;45.226;37.908;2022-11-20T14:42:22;16.51;72.90
74940;HTU21D;63505;45.226;37.908;2022-11-20T14:44:50;16.46;73.12
74940;HTU21D;63505;45.226;37.908;2022-11-20T14:47:23;16.44;73.28
74940;HTU21D;63505;45.226;37.908;2022-11-20T14:49:52;16.40;73.44
74940;HTU21D;63505;45.226;37.908;2022-11-20T14:52:21;16.34;73.61
74940;HTU21D;63505;45.226;37.908;2022-11-20T14:54:56;16.36;73.77
74940;HTU21D;63505;45.226;37.908;2022-11-20T14:57:32;16.35;73.87
74940;HTU21D;63505;45.226;37.908;2022-11-20T15:02:48;16.35;74.13
74940;HTU21D;63505;45.226;37.908;2022-11-20T15:05:15;16.34;74.35
74940;HTU21D;63505;45.226;37.908;2022-11-20T15:07:44;16.33;74.44
74940;HTU21D;63505;45.226;37.908;2022-11-20T15:10:22;16.32;74.62
74940;HTU21D;63505;45.226;37.908;2022-11-20T15:12:54;16.28;74.73
74940;HTU21D;63505;45.226;37.908;2022-11-20T15:18:12;16.18;75.21
74940;HTU21D;63505;45.226;37.908;2022-11-20T15:20:39;16.15;75.30
74940;HTU21D;63505;45.226;37.908;2022-11-20T15:23:11;16.10;75.51
74940;HTU21D;63505;45.226;37.908;2022-11-20T15:25:40;16.08;75.69
74940;HTU21D;63505;45.226;37.908;2022-11-20T15:28:35;16.05;75.89
74940;HTU21D;63505;45.226;37.908;2022-11-20T15:31:04;16.02;76.02
74940;HTU21D;63505;45.226;37.908;2022-11-20T15:33:31;15.98;76.15
74940;HTU21D;63505;45.226;37.908;2022-11-20T15:35:57;15.96;76.27
74940;HTU21D;63505;45.226;37.908;2022-11-20T15:38:24;15.91;76.39
74940;HTU21D;63505;45.226;37.908;2022-11-20T15:40:50;15.88;76.56
74940;HTU21D;63505;45.226;37.908;2022-11-20T15:43:16;15.87;76.70
74940;HTU21D;63505;45.226;37.908;2022-11-20T15:45:48;15.85;76.86
74940;HTU21D;63505;45.226;37.908;2022-11-20T15:48:16;15.86;77.14
74940;HTU21D;63505;45.226;37.908;2022-11-20T15:50:58;15.86;77.30
74940;HTU21D;63505;45.226;37.908;2022-11-20T15:53:25;15.84;77.50
74940;HTU21D;63505;45.226;37.908;2022-11-20T15:55:51;15.82;77.66
74940;HTU21D;63505;45.226;37.908;2022-11-20T15:58:18;15.80;77.78
74940;HTU21D;63505;45.226;37.908;2022-11-20T16:00:44;15.83;78.09
74940;HTU21D;63505;45.226;37.908;2022-11-20T16:03:12;15.86;78.24
74940;HTU21D;63505;45.226;37.908;2022-11-20T16:05:39;15.91;78.16
74940;HTU21D;63505;45.226;37.908;2022-11-20T16:08:05;15.92;78.10
74940;HTU21D;63505;45.226;37.908;2022-11-20T16:10:32;15.98;78.06
74940;HTU21D;63505;45.226;37.908;2022-11-20T16:12:58;16.02;78.00
74940;HTU21D;63505;45.226;37.908;2022-11-20T16:15:51;16.11;77.85
74940;HTU21D;63505;45.226;37.908;2022-11-20T16:18:20;16.10;77.78
74940;HTU21D;63505;45.226;37.908;2022-11-20T16:20:50;16.10;77.76
74940;HTU21D;63505;45.226;37.908;2022-11-20T16:23:17;16.08;77.76
74940;HTU21D;63505;45.226;37.908;2022-11-20T16:25:44;16.08;77.82
74940;HTU21D;63505;45.226;37.908;2022-11-20T16:28:11;16.10;77.85
74940;HTU21D;63505;45.226;37.908;2022-11-20T16:30:37;16.12;77.81
74940;HTU21D;63505;45.226;37.908;2022-11-20T16:33:04;16.13;77.76
74940;HTU21D;63505;45.226;37.908;2022-11-20T16:35:34;16.14;77.79
74940;HTU21D;63505;45.226;37.908;2022-11-20T16:38:01;16.16;77.74